Terminal Aerodrome Forecast
Issued by NWS

Home | Current Version | Previous Version | Text Only | Print | Product List | Glossary On
Versions: 1 2 3 4 5 6 7 8 9 10 11 12 13 14 15 16 17 18 19 20 21 22 23 24 25 26 27 28 29 30 31 32 33 34 35 36 37 38 39 40 41 42 43 44 45 46 47 48 49 50
000
FTUS41 KRNK 062112 AAB
TAFBCB
TAF AMD
KBCB 062112Z 0621/0718 28007KT P6SM VCSH SCT025 BKN045
      TEMPO 0622/0624 4SM -SHRA BKN015
     FM070000 26006KT P6SM SCT018 OVC035
     FM070700 00000KT 5SM BR SCT250
      TEMPO 0709/0712 2SM BR
     FM071300 27003KT P6SM SCT040 BKN250=

USA.gov is the U.S. government's official web portal to all federal, state and local government web resources and services.